Airfield :
LOGIN :

Register | Disclaimer

   EN    FR    IT 

 










Legend :    VFR   Marginal VFR   IFR   Intensive IFR   Very Intensive IFR
Visi :
Ceiling :
>= 8 km
>= 3000ft
5 to 8 km
1000 to 3000 ft
1500m to 5 km
500 to 1000 ft
800 to 1500m
200 to 500 ft
< 800m
< 200 ft
Symbols :   Thunderstorms  Fog  Heavy snow  Heavy precipitations  Wind > 20 kt
SIGMETs :     Misc.  Thunderstorms  Icing  Turbulence  Mountain Waves  Volcanic Ashes






- Airport Elevation : 157 ft


LESB - Son Bonet

CURRENT METAR :
  • 021130Z AUTO 05008KT CAVOK 14/10 Q1012

EXPIRED METARs :
  • 021100Z AUTO 05005KT 020V100 CAVOK 14/09 Q1012
  • 021030Z AUTO 03007KT CAVOK 13/10 Q1013
  • 021000Z AUTO 04009KT CAVOK 13/10 Q1013
  • 020930Z AUTO 05011KT 9999 FEW035/// 13/10 Q1013
  • 020900Z AUTO 01003KT 350V050 CAVOK 12/09 Q1013

TAF N/A



MET'MAP, your aeronautical weather chart ! - Copyright ORBIFLY December 2007 - Disclaimer

ORBIFLY MET'MAP TEAM :

Programming & Development : Alexandra Zaïnal
Original concept : Baudouin d'Aumeries
Technical & hardware support : Manuel Goepfert
Assistance : Marc-Olivier Méhu




SOURCES & CREDITS :

   NOAA